Hauptseite
METAR-TAF:

METAR-TAF

Flughäfen :

Frenchville, Maine, Vereinigte Staaten

Breite: 47-17-06N, Länge: 068-18-26W, Höhe: 301 m

Beobachtung

Neuester Wetterbericht von vor 34 Minuten, um 11:53 UTC
Wind 15 kt aus Nord/Nordwest, Böen bis zu 22 kt
Temperatur 16°C
Luftfeuchtigkeit 72%
Luftdruck 1009 hPa
Sichtweite: 16.1 km
Aufgelockert bewölkt in der Höhe von 1200 ft

METAR: KFVE 181153Z AUTO 33015G22KT 10SM SCT012 16/11 A2979 RMK AO2 SLP083 70031 T01560111 10189 20150 51017

Zeit: 08:27 (12:27 UTC)

Prognose

Neuester Wetterbericht von vor 1 Stunde und 7 Minuten, um 11:20 UTC
Gültige Prognose vom 18 um 12 UTC bis 19 um 12 UTC
Wind 10 kt aus Nord/Nordwest
Sichtweite: 10 km
Aufgelockert bewölkt in der Höhe von 25000 ft
Ab 18 um 2300 UTC
Wind 6 kt aus Nordwest
Sichtweite: 10 km
Leicht bewölkt in der Höhe von 25000 ft

TAF: KFVE 181120Z 1812/1912 33010KT P6SM SCT250 FM182300 31006KT P6SM FEW250

Wetterbeobachtungen und Prognosen von mehr als 4000 Flughäfen (METAR und TAF Bericht).

Die verfügbaren Stationen werden durch gelbe und rote Markierungen auf der Karte dargestellt.

Führen Sie die Maus auf sie, um den Namen der Station zu sehen.

Darauf klicken, um die Beobachtung von Wetterbeobachtungen und Prognosen zu sehen.

Um die Karte zu ändern : klicken Sie auf den grünen Tasten mit einem schwarzen Kreuz Zum Vergrößern, auf den grünen Button mit einem Gedankenstrich zu verkleinern, oder auf die grünen Pfeile für benachbarte Karten.


METAR-TAF: